createdAt,value
2019-05-26T00:04:27.381Z,91.80
2019-05-26T00:09:31.841Z,90.90
2019-05-26T00:14:36.679Z,92.40
2019-05-26T00:19:40.892Z,92.30
2019-05-26T00:24:45.304Z,91.90
2019-05-26T00:29:49.483Z,91.90
2019-05-26T00:34:53.622Z,91.10
2019-05-26T00:39:57.621Z,89.60
2019-05-26T00:45:02.071Z,88.60
2019-05-26T00:50:06.764Z,88.70
2019-05-26T00:55:11.670Z,89.30
2019-05-26T01:00:18.871Z,89.90
2019-05-26T01:05:23.256Z,89.80
2019-05-26T01:10:27.412Z,90.20
2019-05-26T01:15:31.519Z,92.00
2019-05-26T01:20:35.917Z,92.30
2019-05-26T01:25:40.280Z,90.70
2019-05-26T01:30:44.402Z,90.60
2019-05-26T01:35:48.975Z,90.40
2019-05-26T01:40:52.326Z,90.50
2019-05-26T01:45:56.638Z,90.10
2019-05-26T01:51:00.836Z,91.00
2019-05-26T01:56:05.291Z,90.70
2019-05-26T02:01:09.541Z,90.70
2019-05-26T02:06:14.255Z,90.80
2019-05-26T02:11:18.586Z,91.30
2019-05-26T02:16:22.852Z,90.90
2019-05-26T02:21:27.331Z,91.30
2019-05-26T02:26:32.516Z,91.10
2019-05-26T02:31:39.106Z,91.70
2019-05-26T02:36:43.339Z,91.90
2019-05-26T02:41:48.273Z,91.90
2019-05-26T02:46:54.142Z,92.30
2019-05-26T02:51:58.537Z,91.30
2019-05-26T02:57:02.654Z,91.00
2019-05-26T03:02:07.271Z,90.90
2019-05-26T03:07:14.086Z,92.20
2019-05-26T03:12:22.493Z,91.90
2019-05-26T03:17:31.643Z,93.00
2019-05-26T03:22:41.217Z,92.00
2019-05-26T03:27:45.756Z,91.30
2019-05-26T03:32:49.607Z,91.50
2019-05-26T03:37:53.749Z,91.50
2019-05-26T03:42:57.742Z,91.50
2019-05-26T03:48:01.870Z,91.70
2019-05-26T03:53:06.788Z,91.00
2019-05-26T03:58:10.821Z,91.50
2019-05-26T04:03:14.902Z,91.30
2019-05-26T04:08:22.214Z,91.00
2019-05-26T04:13:35.177Z,91.10
2019-05-26T04:18:40.887Z,91.80
2019-05-26T04:23:49.454Z,91.40
2019-05-26T04:28:53.994Z,91.20
2019-05-26T04:33:58.567Z,91.20
2019-05-26T04:39:01.688Z,90.90
2019-05-26T04:44:07.044Z,90.70
2019-05-26T04:49:11.170Z,91.00
2019-05-26T04:54:15.250Z,90.40
2019-05-26T04:59:22.989Z,90.70
2019-05-26T05:04:36.009Z,90.50
2019-05-26T05:09:42.618Z,88.60
2019-05-26T05:14:46.947Z,86.40
2019-05-26T05:19:53.382Z,85.20
2019-05-26T05:24:57.585Z,83.80
2019-05-26T05:30:01.684Z,83.70
2019-05-26T05:35:06.332Z,85.00
2019-05-26T05:40:09.539Z,83.20
2019-05-26T05:45:13.870Z,81.70
2019-05-26T05:50:21.176Z,80.00
2019-05-26T05:55:26.809Z,78.10
2019-05-26T06:00:30.972Z,76.40
2019-05-26T06:05:35.077Z,72.20
2019-05-26T06:10:39.681Z,68.00
2019-05-26T06:15:46.527Z,66.20
2019-05-26T06:20:51.876Z,64.30
2019-05-26T06:25:58.094Z,62.50
2019-05-26T06:31:02.346Z,60.30
2019-05-26T06:36:09.341Z,59.20
2019-05-26T06:41:32.970Z,58.10
2019-05-26T06:46:27.737Z,54.70
2019-05-26T06:51:32.183Z,53.20
2019-05-26T06:56:36.296Z,51.00
2019-05-26T07:01:40.426Z,51.00
2019-05-26T07:06:44.951Z,50.60
2019-05-26T07:11:57.101Z,50.50
2019-05-26T07:16:55.230Z,51.40
2019-05-26T07:22:05.173Z,53.30
2019-05-26T07:27:11.511Z,53.80
2019-05-26T07:32:16.245Z,52.50
2019-05-26T07:37:20.279Z,52.60
2019-05-26T07:42:24.495Z,51.10
2019-05-26T07:47:30.324Z,52.10
2019-05-26T07:52:34.428Z,52.50
2019-05-26T07:57:39.630Z,51.60
2019-05-26T08:02:43.865Z,52.60
2019-05-26T08:07:47.819Z,52.10
2019-05-26T08:12:54.647Z,52.00
2019-05-26T08:17:58.647Z,52.10
2019-05-26T08:23:02.923Z,51.60
2019-05-26T08:28:07.379Z,52.70
2019-05-26T08:33:11.715Z,52.90
2019-05-26T08:38:16.052Z,52.90
2019-05-26T08:43:20.894Z,51.60
2019-05-26T08:48:28.006Z,50.60
2019-05-26T08:53:32.100Z,48.90
2019-05-26T08:58:36.242Z,47.40
2019-05-26T09:03:40.624Z,45.70
2019-05-26T09:08:45.447Z,45.00
2019-05-26T09:13:49.576Z,42.40
2019-05-26T09:18:53.983Z,42.30
2019-05-26T09:23:58.820Z,40.50
2019-05-26T09:29:04.365Z,39.70
2019-05-26T09:34:08.775Z,42.90
2019-05-26T09:39:11.901Z,40.10
2019-05-26T09:44:17.471Z,41.10
2019-05-26T09:49:21.952Z,41.50
2019-05-26T09:54:26.315Z,43.00
2019-05-26T09:59:29.416Z,44.40
2019-05-26T10:04:35.089Z,44.20
2019-05-26T10:09:39.606Z,46.30
2019-05-26T10:14:43.644Z,46.70
2019-05-26T10:19:48.179Z,48.20
2019-05-26T10:24:52.172Z,49.20
2019-05-26T10:29:56.523Z,50.30
2019-05-26T10:34:59.951Z,50.70
2019-05-26T10:40:04.870Z,51.80
2019-05-26T10:45:11.802Z,51.90
2019-05-26T10:50:16.594Z,52.10
2019-05-26T10:55:20.701Z,51.40
2019-05-26T11:00:24.938Z,49.70
2019-05-26T11:05:29.326Z,48.60
2019-05-26T11:10:33.417Z,49.10
2019-05-26T11:15:38.798Z,50.50
2019-05-26T11:20:43.157Z,49.50
2019-05-26T11:25:47.453Z,49.80
2019-05-26T11:30:51.755Z,50.10
2019-05-26T11:35:56.040Z,50.00
2019-05-26T11:41:00.332Z,49.30
2019-05-26T11:46:04.445Z,48.70
2019-05-26T11:51:08.569Z,49.60
2019-05-26T11:56:12.867Z,49.50
2019-05-26T12:01:16.960Z,49.70
2019-05-26T12:06:22.734Z,49.90
2019-05-26T12:11:27.173Z,50.10
2019-05-26T12:16:30.163Z,49.30
2019-05-26T12:21:34.294Z,49.30
2019-05-26T12:26:38.649Z,49.80
2019-05-26T12:31:47.828Z,50.60
2019-05-26T12:36:52.917Z,50.50
2019-05-26T12:41:59.176Z,48.80
2019-05-26T12:47:03.264Z,49.90
2019-05-26T12:52:26.984Z,47.50
2019-05-26T12:57:31.400Z,48.80
2019-05-26T13:02:35.747Z,47.00
2019-05-26T13:07:39.076Z,46.60
2019-05-26T13:12:45.345Z,47.10
2019-05-26T13:17:49.666Z,46.20
2019-05-26T13:22:53.851Z,46.20
2019-05-26T13:28:00.357Z,46.80
2019-05-26T13:33:04.938Z,47.40
2019-05-26T13:38:09.122Z,46.50
2019-05-26T13:43:13.204Z,48.30
2019-05-26T13:48:17.346Z,47.60
2019-05-26T13:53:21.540Z,48.00
2019-05-26T13:58:25.679Z,48.20
2019-05-26T14:03:29.932Z,49.50
2019-05-26T14:08:34.002Z,48.10
2019-05-26T14:13:38.575Z,47.30
2019-05-26T14:18:44.536Z,47.90
2019-05-26T14:23:49.167Z,48.10
2019-05-26T14:28:53.447Z,47.80
2019-05-26T14:33:57.758Z,48.60
2019-05-26T14:39:02.182Z,48.80
2019-05-26T14:44:06.306Z,49.00
2019-05-26T14:49:10.491Z,49.40
2019-05-26T14:54:14.942Z,49.20
2019-05-26T14:59:19.100Z,50.00
2019-05-26T15:04:23.398Z,50.30
2019-05-26T15:09:28.383Z,50.70
2019-05-26T15:14:33.202Z,51.10
2019-05-26T15:19:37.364Z,50.60
2019-05-26T15:24:46.009Z,51.30
2019-05-26T15:29:47.543Z,50.70
2019-05-26T15:34:50.815Z,51.20
2019-05-26T15:39:54.813Z,51.60
2019-05-26T15:45:01.812Z,52.00
2019-05-26T15:50:06.411Z,52.90
2019-05-26T15:55:10.678Z,53.50
2019-05-26T16:00:15.324Z,54.20
2019-05-26T16:05:21.460Z,54.40
2019-05-26T16:10:25.841Z,54.70
2019-05-26T16:15:29.978Z,54.80
2019-05-26T16:20:34.425Z,55.30
2019-05-26T16:25:37.867Z,55.60
2019-05-26T16:30:41.854Z,55.20
2019-05-26T16:35:54.828Z,55.20
2019-05-26T16:40:57.411Z,54.90
2019-05-26T16:46:01.829Z,55.30
2019-05-26T16:51:07.097Z,55.50
2019-05-26T16:56:11.268Z,56.00
2019-05-26T17:01:15.408Z,56.20
2019-05-26T17:06:23.190Z,56.80
2019-05-26T17:11:27.349Z,57.20
2019-05-26T17:16:31.579Z,57.60
2019-05-26T17:21:36.307Z,57.90
2019-05-26T17:26:40.629Z,58.10
2019-05-26T17:31:55.068Z,59.50
2019-05-26T17:36:59.733Z,58.90
2019-05-26T17:42:03.867Z,59.20
2019-05-26T17:47:29.272Z,59.80
2019-05-26T17:52:24.213Z,59.80
2019-05-26T17:57:30.972Z,60.20
2019-05-26T18:02:35.057Z,60.50
2019-05-26T18:07:42.248Z,61.00
2019-05-26T18:12:46.772Z,61.50
2019-05-26T18:18:23.340Z,62.10
2019-05-26T18:23:28.687Z,62.70
2019-05-26T18:28:32.733Z,62.50
2019-05-26T18:33:36.802Z,63.20
2019-05-26T18:38:41.053Z,63.40
2019-05-26T18:43:45.925Z,63.10
2019-05-26T18:48:50.255Z,63.80
2019-05-26T18:54:00.091Z,64.00
2019-05-26T18:59:04.542Z,63.50
2019-05-26T19:04:07.767Z,64.10
2019-05-26T19:09:12.198Z,64.90
2019-05-26T19:14:17.865Z,65.00
2019-05-26T19:19:43.923Z,64.20
2019-05-26T19:24:50.927Z,65.10
2019-05-26T19:29:58.027Z,65.40
2019-05-26T19:35:03.750Z,65.90
2019-05-26T19:40:12.333Z,66.10
2019-05-26T19:45:16.991Z,65.90
2019-05-26T19:50:21.636Z,66.40
2019-05-26T19:55:29.443Z,66.10
2019-05-26T20:00:33.942Z,67.00
2019-05-26T20:05:38.359Z,66.40
2019-05-26T20:10:42.412Z,66.60
2019-05-26T20:15:52.192Z,67.10
2019-05-26T20:20:56.323Z,67.20
2019-05-26T20:26:00.618Z,68.20
2019-05-26T20:31:08.084Z,68.40
2019-05-26T20:36:12.435Z,68.60
2019-05-26T20:46:41.349Z,68.20
2019-05-26T20:51:45.739Z,68.10
2019-05-26T20:56:52.047Z,69.40
2019-05-26T21:01:57.159Z,70.00
2019-05-26T21:07:05.278Z,71.20
2019-05-26T21:12:10.382Z,71.10
2019-05-26T21:17:14.786Z,71.80
2019-05-26T21:22:19.184Z,71.90
2019-05-26T21:27:25.022Z,74.60
2019-05-26T21:32:31.392Z,73.10
2019-05-26T21:37:36.261Z,73.40
2019-05-26T21:42:39.732Z,76.30
2019-05-26T21:47:44.655Z,76.50
2019-05-26T21:52:52.878Z,75.70
2019-05-26T21:57:58.880Z,76.00
2019-05-26T22:03:08.207Z,76.20
2019-05-26T22:08:12.472Z,77.00
2019-05-26T22:13:16.620Z,76.30
2019-05-26T22:18:23.419Z,77.60
2019-05-26T22:23:29.702Z,77.20
2019-05-26T22:28:35.398Z,76.20
2019-05-26T22:33:39.508Z,77.60
2019-05-26T22:38:47.637Z,78.40
2019-05-26T22:43:52.102Z,76.60
2019-05-26T22:48:56.617Z,76.40
2019-05-26T22:54:03.733Z,76.40
2019-05-26T22:59:09.620Z,76.40
2019-05-26T23:04:13.829Z,75.80
2019-05-26T23:09:18.356Z,77.70
2019-05-26T23:14:21.353Z,76.10
2019-05-26T23:19:26.094Z,75.00
2019-05-26T23:24:30.357Z,76.80
2019-05-26T23:29:34.374Z,75.60
2019-05-26T23:34:38.611Z,75.90
2019-05-26T23:39:43.111Z,75.60
2019-05-26T23:44:53.566Z,75.90
2019-05-26T23:50:01.207Z,75.30
2019-05-26T23:55:06.399Z,74.60
